sensor_id;sensor_type;location;lat;lon;timestamp;temperature;humidity
9509;DHT22;4792;50.088;8.122;2022-12-10T00:01:41;0.20;99.90
9509;DHT22;4792;50.088;8.122;2022-12-10T00:04:11;0.10;99.90
9509;DHT22;4792;50.088;8.122;2022-12-10T00:06:40;0.10;99.90
9509;DHT22;4792;50.088;8.122;2022-12-10T00:09:11;0.10;99.90
9509;DHT22;4792;50.088;8.122;2022-12-10T00:11:41;0.00;99.90
9509;DHT22;4792;50.088;8.122;2022-12-10T00:14:11;-0.10;99.90
9509;DHT22;4792;50.088;8.122;2022-12-10T00:16:39;0.00;99.90
9509;DHT22;4792;50.088;8.122;2022-12-10T00:19:08;-0.10;99.90
9509;DHT22;4792;50.088;8.122;2022-12-10T00:21:36;-0.10;99.90
9509;DHT22;4792;50.088;8.122;2022-12-10T00:24:05;-0.20;99.90
9509;DHT22;4792;50.088;8.122;2022-12-10T00:26:35;-0.20;99.90
9509;DHT22;4792;50.088;8.122;2022-12-10T00:29:06;-0.20;99.90
9509;DHT22;4792;50.088;8.122;2022-12-10T00:31:36;-0.20;99.90
9509;DHT22;4792;50.088;8.122;2022-12-10T00:34:06;-0.20;99.90
9509;DHT22;4792;50.088;8.122;2022-12-10T00:36:37;-0.20;99.90
9509;DHT22;4792;50.088;8.122;2022-12-10T00:39:06;-0.20;99.90
9509;DHT22;4792;50.088;8.122;2022-12-10T00:41:34;-0.30;99.90
9509;DHT22;4792;50.088;8.122;2022-12-10T00:44:02;-0.30;99.90
9509;DHT22;4792;50.088;8.122;2022-12-10T00:46:33;-0.30;99.90
9509;DHT22;4792;50.088;8.122;2022-12-10T00:49:01;-0.30;99.90
9509;DHT22;4792;50.088;8.122;2022-12-10T00:51:29;-0.30;99.90
9509;DHT22;4792;50.088;8.122;2022-12-10T00:53:59;-0.30;99.90
9509;DHT22;4792;50.088;8.122;2022-12-10T00:56:28;-0.30;99.90
9509;DHT22;4792;50.088;8.122;2022-12-10T00:58:56;-0.40;99.90
9509;DHT22;4792;50.088;8.122;2022-12-10T01:01:27;-0.40;99.90
9509;DHT22;4792;50.088;8.122;2022-12-10T01:03:58;-0.40;99.90
9509;DHT22;4792;50.088;8.122;2022-12-10T01:06:29;-0.40;99.90
9509;DHT22;4792;50.088;8.122;2022-12-10T01:08:59;-0.40;99.90
9509;DHT22;4792;50.088;8.122;2022-12-10T01:11:31;-0.40;99.90
9509;DHT22;4792;50.088;8.122;2022-12-10T01:14:00;-0.40;99.90
9509;DHT22;4792;50.088;8.122;2022-12-10T01:16:28;-0.50;99.90
9509;DHT22;4792;50.088;8.122;2022-12-10T01:18:58;-0.40;99.90
9509;DHT22;4792;50.088;8.122;2022-12-10T01:21:28;-0.40;99.90
9509;DHT22;4792;50.088;8.122;2022-12-10T01:23:58;-0.40;99.90
9509;DHT22;4792;50.088;8.122;2022-12-10T01:26:29;-0.40;99.90
9509;DHT22;4792;50.088;8.122;2022-12-10T01:28:58;-0.40;99.90
9509;DHT22;4792;50.088;8.122;2022-12-10T01:31:28;-0.50;99.90
9509;DHT22;4792;50.088;8.122;2022-12-10T01:33:58;-0.50;99.90
9509;DHT22;4792;50.088;8.122;2022-12-10T01:36:28;-0.50;99.90
9509;DHT22;4792;50.088;8.122;2022-12-10T01:38:58;-0.50;99.90
9509;DHT22;4792;50.088;8.122;2022-12-10T01:41:28;-0.50;99.90
9509;DHT22;4792;50.088;8.122;2022-12-10T01:43:58;-0.50;99.90
9509;DHT22;4792;50.088;8.122;2022-12-10T01:46:29;-0.60;99.90
9509;DHT22;4792;50.088;8.122;2022-12-10T01:48:59;-0.50;99.90
9509;DHT22;4792;50.088;8.122;2022-12-10T01:51:33;-0.50;99.90
9509;DHT22;4792;50.088;8.122;2022-12-10T01:54:03;-0.50;99.90
9509;DHT22;4792;50.088;8.122;2022-12-10T01:56:35;-0.50;99.90
9509;DHT22;4792;50.088;8.122;2022-12-10T01:59:04;-0.50;99.90
9509;DHT22;4792;50.088;8.122;2022-12-10T02:01:41;-0.60;99.90
9509;DHT22;4792;50.088;8.122;2022-12-10T02:04:20;-0.60;99.90
9509;DHT22;4792;50.088;8.122;2022-12-10T02:06:55;-0.60;99.90
9509;DHT22;4792;50.088;8.122;2022-12-10T02:09:29;-0.60;99.90
9509;DHT22;4792;50.088;8.122;2022-12-10T02:12:08;-0.70;99.90
9509;DHT22;4792;50.088;8.122;2022-12-10T02:14:43;-0.70;99.90
9509;DHT22;4792;50.088;8.122;2022-12-10T02:17:20;-0.70;99.90
9509;DHT22;4792;50.088;8.122;2022-12-10T02:20:02;-0.80;99.90
9509;DHT22;4792;50.088;8.122;2022-12-10T02:22:37;-0.80;99.90
9509;DHT22;4792;50.088;8.122;2022-12-10T02:25:08;-0.80;99.90
9509;DHT22;4792;50.088;8.122;2022-12-10T02:27:45;-0.90;99.90
9509;DHT22;4792;50.088;8.122;2022-12-10T02:30:16;-0.90;99.90
9509;DHT22;4792;50.088;8.122;2022-12-10T02:32:46;-0.90;99.90
9509;DHT22;4792;50.088;8.122;2022-12-10T02:35:18;-0.90;99.90
9509;DHT22;4792;50.088;8.122;2022-12-10T02:37:50;-0.90;99.90
9509;DHT22;4792;50.088;8.122;2022-12-10T02:40:23;-0.90;99.90
9509;DHT22;4792;50.088;8.122;2022-12-10T02:42:53;-0.90;99.90
9509;DHT22;4792;50.088;8.122;2022-12-10T02:45:25;-0.90;99.90
9509;DHT22;4792;50.088;8.122;2022-12-10T02:47:57;-1.00;99.90
9509;DHT22;4792;50.088;8.122;2022-12-10T02:50:26;-1.00;99.90
9509;DHT22;4792;50.088;8.122;2022-12-10T02:52:54;-1.00;99.90
9509;DHT22;4792;50.088;8.122;2022-12-10T02:55:22;-1.00;99.90
9509;DHT22;4792;50.088;8.122;2022-12-10T02:57:59;-1.10;99.90
9509;DHT22;4792;50.088;8.122;2022-12-10T03:00:34;-1.10;99.90
9509;DHT22;4792;50.088;8.122;2022-12-10T03:03:15;-1.10;99.90
9509;DHT22;4792;50.088;8.122;2022-12-10T03:05:47;-1.10;99.90
9509;DHT22;4792;50.088;8.122;2022-12-10T03:08:21;-1.20;99.90
9509;DHT22;4792;50.088;8.122;2022-12-10T03:10:55;-1.10;99.90
9509;DHT22;4792;50.088;8.122;2022-12-10T03:13:27;-1.10;99.90
9509;DHT22;4792;50.088;8.122;2022-12-10T03:15:59;-1.10;99.90
9509;DHT22;4792;50.088;8.122;2022-12-10T03:18:30;-1.10;99.90
9509;DHT22;4792;50.088;8.122;2022-12-10T03:21:03;-1.10;99.90
9509;DHT22;4792;50.088;8.122;2022-12-10T03:23:34;-1.20;99.90
9509;DHT22;4792;50.088;8.122;2022-12-10T03:26:06;-1.20;99.90
9509;DHT22;4792;50.088;8.122;2022-12-10T03:28:39;-1.20;99.90
9509;DHT22;4792;50.088;8.122;2022-12-10T03:31:10;-1.20;99.90
9509;DHT22;4792;50.088;8.122;2022-12-10T03:33:40;-1.20;99.90
9509;DHT22;4792;50.088;8.122;2022-12-10T03:36:09;-1.30;99.90
9509;DHT22;4792;50.088;8.122;2022-12-10T03:38:38;-1.20;99.90
9509;DHT22;4792;50.088;8.122;2022-12-10T03:41:06;-1.20;99.90
9509;DHT22;4792;50.088;8.122;2022-12-10T03:43:34;-1.30;99.90
9509;DHT22;4792;50.088;8.122;2022-12-10T03:46:03;-1.30;99.90
9509;DHT22;4792;50.088;8.122;2022-12-10T03:48:32;-1.30;99.90
9509;DHT22;4792;50.088;8.122;2022-12-10T03:51:00;-1.30;99.90
9509;DHT22;4792;50.088;8.122;2022-12-10T03:53:28;-1.20;99.90
9509;DHT22;4792;50.088;8.122;2022-12-10T03:55:56;-1.30;99.90
9509;DHT22;4792;50.088;8.122;2022-12-10T03:58:25;-1.30;99.90
9509;DHT22;4792;50.088;8.122;2022-12-10T04:00:53;-1.30;99.90
9509;DHT22;4792;50.088;8.122;2022-12-10T04:03:21;-1.30;99.90
9509;DHT22;4792;50.088;8.122;2022-12-10T04:05:50;-1.30;99.90
9509;DHT22;4792;50.088;8.122;2022-12-10T04:08:18;-1.30;99.90
9509;DHT22;4792;50.088;8.122;2022-12-10T04:10:46;-1.30;99.90
9509;DHT22;4792;50.088;8.122;2022-12-10T04:13:14;-1.30;99.90
9509;DHT22;4792;50.088;8.122;2022-12-10T04:16:02;-1.30;99.90
9509;DHT22;4792;50.088;8.122;2022-12-10T04:18:47;-1.30;99.90
9509;DHT22;4792;50.088;8.122;2022-12-10T04:21:17;-1.30;99.90
9509;DHT22;4792;50.088;8.122;2022-12-10T04:24:02;-1.30;99.90
9509;DHT22;4792;50.088;8.122;2022-12-10T04:26:48;-1.40;99.90
9509;DHT22;4792;50.088;8.122;2022-12-10T04:29:23;-1.40;99.90
9509;DHT22;4792;50.088;8.122;2022-12-10T04:31:52;-1.40;99.90
9509;DHT22;4792;50.088;8.122;2022-12-10T04:34:20;-1.40;99.90
9509;DHT22;4792;50.088;8.122;2022-12-10T04:36:50;-1.50;99.90
9509;DHT22;4792;50.088;8.122;2022-12-10T04:39:19;-1.50;99.90
9509;DHT22;4792;50.088;8.122;2022-12-10T04:41:49;-1.50;99.90
9509;DHT22;4792;50.088;8.122;2022-12-10T04:44:18;-1.60;99.90
9509;DHT22;4792;50.088;8.122;2022-12-10T04:46:46;-1.60;99.90
9509;DHT22;4792;50.088;8.122;2022-12-10T04:49:15;-1.60;99.90
9509;DHT22;4792;50.088;8.122;2022-12-10T04:51:43;-1.60;99.90
9509;DHT22;4792;50.088;8.122;2022-12-10T04:54:13;-1.50;99.90
9509;DHT22;4792;50.088;8.122;2022-12-10T04:56:41;-1.50;99.90
9509;DHT22;4792;50.088;8.122;2022-12-10T04:59:10;-1.60;99.90
9509;DHT22;4792;50.088;8.122;2022-12-10T05:01:39;-1.60;99.90
9509;DHT22;4792;50.088;8.122;2022-12-10T05:04:09;-1.50;99.90
9509;DHT22;4792;50.088;8.122;2022-12-10T05:06:39;-1.60;99.90
9509;DHT22;4792;50.088;8.122;2022-12-10T05:09:07;-1.50;99.90
9509;DHT22;4792;50.088;8.122;2022-12-10T05:11:37;-1.60;99.90
9509;DHT22;4792;50.088;8.122;2022-12-10T05:14:05;-1.60;99.90
9509;DHT22;4792;50.088;8.122;2022-12-10T05:16:34;-1.60;99.90
9509;DHT22;4792;50.088;8.122;2022-12-10T05:19:02;-1.60;99.90
9509;DHT22;4792;50.088;8.122;2022-12-10T05:21:30;-1.60;99.90
9509;DHT22;4792;50.088;8.122;2022-12-10T05:24:13;-1.60;99.90
9509;DHT22;4792;50.088;8.122;2022-12-10T05:26:43;-1.60;99.90
9509;DHT22;4792;50.088;8.122;2022-12-10T05:29:12;-1.60;99.90
9509;DHT22;4792;50.088;8.122;2022-12-10T05:31:40;-1.60;99.90
9509;DHT22;4792;50.088;8.122;2022-12-10T05:34:10;-1.60;99.90
9509;DHT22;4792;50.088;8.122;2022-12-10T05:36:38;-1.60;99.90
9509;DHT22;4792;50.088;8.122;2022-12-10T05:39:06;-1.60;99.90
9509;DHT22;4792;50.088;8.122;2022-12-10T05:41:37;-1.70;99.90
9509;DHT22;4792;50.088;8.122;2022-12-10T05:44:06;-1.60;99.90
9509;DHT22;4792;50.088;8.122;2022-12-10T05:46:35;-1.70;99.90
9509;DHT22;4792;50.088;8.122;2022-12-10T05:49:05;-1.70;99.90
9509;DHT22;4792;50.088;8.122;2022-12-10T05:51:36;-1.70;99.90
9509;DHT22;4792;50.088;8.122;2022-12-10T05:54:05;-1.70;99.90
9509;DHT22;4792;50.088;8.122;2022-12-10T05:56:36;-1.70;99.90
9509;DHT22;4792;50.088;8.122;2022-12-10T05:59:06;-1.70;99.90
9509;DHT22;4792;50.088;8.122;2022-12-10T06:01:42;-1.80;99.90
9509;DHT22;4792;50.088;8.122;2022-12-10T06:04:10;-1.70;99.90
9509;DHT22;4792;50.088;8.122;2022-12-10T06:06:39;-1.70;99.90
9509;DHT22;4792;50.088;8.122;2022-12-10T06:09:11;-1.70;99.90
9509;DHT22;4792;50.088;8.122;2022-12-10T06:11:40;-1.70;99.90
9509;DHT22;4792;50.088;8.122;2022-12-10T06:14:10;-1.70;99.90
9509;DHT22;4792;50.088;8.122;2022-12-10T06:16:39;-1.70;99.90
9509;DHT22;4792;50.088;8.122;2022-12-10T06:19:08;-1.70;99.90
9509;DHT22;4792;50.088;8.122;2022-12-10T06:21:37;-1.70;99.90
9509;DHT22;4792;50.088;8.122;2022-12-10T06:24:06;-1.70;99.90
9509;DHT22;4792;50.088;8.122;2022-12-10T06:26:34;-1.70;99.90
9509;DHT22;4792;50.088;8.122;2022-12-10T06:29:02;-1.80;99.90
9509;DHT22;4792;50.088;8.122;2022-12-10T06:31:32;-1.80;99.90
9509;DHT22;4792;50.088;8.122;2022-12-10T06:34:01;-1.70;99.90
9509;DHT22;4792;50.088;8.122;2022-12-10T06:36:29;-1.80;99.90
9509;DHT22;4792;50.088;8.122;2022-12-10T06:38:57;-1.80;99.90
9509;DHT22;4792;50.088;8.122;2022-12-10T06:41:26;-1.70;99.90
9509;DHT22;4792;50.088;8.122;2022-12-10T06:43:54;-1.70;99.90
9509;DHT22;4792;50.088;8.122;2022-12-10T06:46:25;-1.70;99.90
9509;DHT22;4792;50.088;8.122;2022-12-10T06:48:56;-1.70;99.90
9509;DHT22;4792;50.088;8.122;2022-12-10T06:51:24;-1.70;99.90
9509;DHT22;4792;50.088;8.122;2022-12-10T06:53:52;-1.70;99.90
9509;DHT22;4792;50.088;8.122;2022-12-10T06:56:21;-1.70;99.90
9509;DHT22;4792;50.088;8.122;2022-12-10T06:58:49;-1.70;99.90
9509;DHT22;4792;50.088;8.122;2022-12-10T07:01:19;-1.70;99.90
9509;DHT22;4792;50.088;8.122;2022-12-10T07:03:48;-1.60;99.90
9509;DHT22;4792;50.088;8.122;2022-12-10T07:06:19;-1.60;99.90
9509;DHT22;4792;50.088;8.122;2022-12-10T07:08:47;-1.60;99.90
9509;DHT22;4792;50.088;8.122;2022-12-10T07:11:17;-1.50;99.90
9509;DHT22;4792;50.088;8.122;2022-12-10T07:13:46;-1.40;99.90
9509;DHT22;4792;50.088;8.122;2022-12-10T07:16:15;-1.50;99.90
9509;DHT22;4792;50.088;8.122;2022-12-10T07:18:47;-1.40;99.90
9509;DHT22;4792;50.088;8.122;2022-12-10T07:21:21;-1.40;99.90
9509;DHT22;4792;50.088;8.122;2022-12-10T07:23:50;-1.40;99.90
9509;DHT22;4792;50.088;8.122;2022-12-10T07:26:18;-1.40;99.90
9509;DHT22;4792;50.088;8.122;2022-12-10T07:28:46;-1.40;99.90
9509;DHT22;4792;50.088;8.122;2022-12-10T07:31:20;-1.40;99.90
9509;DHT22;4792;50.088;8.122;2022-12-10T07:33:50;-1.30;99.90
9509;DHT22;4792;50.088;8.122;2022-12-10T07:36:21;-1.20;99.90
9509;DHT22;4792;50.088;8.122;2022-12-10T07:38:49;-1.30;99.90
9509;DHT22;4792;50.088;8.122;2022-12-10T07:41:18;-1.20;99.90
9509;DHT22;4792;50.088;8.122;2022-12-10T07:43:46;-1.10;99.90
9509;DHT22;4792;50.088;8.122;2022-12-10T07:46:16;-1.20;99.90
9509;DHT22;4792;50.088;8.122;2022-12-10T07:48:45;-1.20;99.90
9509;DHT22;4792;50.088;8.122;2022-12-10T07:51:14;-1.10;99.90
9509;DHT22;4792;50.088;8.122;2022-12-10T07:53:44;-1.10;99.90
9509;DHT22;4792;50.088;8.122;2022-12-10T07:56:12;-1.10;99.90
9509;DHT22;4792;50.088;8.122;2022-12-10T07:58:41;-1.10;99.90
9509;DHT22;4792;50.088;8.122;2022-12-10T08:01:12;-1.00;99.90
9509;DHT22;4792;50.088;8.122;2022-12-10T08:03:40;-1.00;99.90
9509;DHT22;4792;50.088;8.122;2022-12-10T08:06:11;-1.00;99.90
9509;DHT22;4792;50.088;8.122;2022-12-10T08:08:41;-0.90;99.90
9509;DHT22;4792;50.088;8.122;2022-12-10T08:11:11;-0.90;99.90
9509;DHT22;4792;50.088;8.122;2022-12-10T08:13:40;-0.90;99.90
9509;DHT22;4792;50.088;8.122;2022-12-10T08:16:11;-0.90;99.90
9509;DHT22;4792;50.088;8.122;2022-12-10T08:18:39;-0.90;99.90
9509;DHT22;4792;50.088;8.122;2022-12-10T08:21:09;-0.90;99.90
9509;DHT22;4792;50.088;8.122;2022-12-10T08:23:38;-0.90;99.90
9509;DHT22;4792;50.088;8.122;2022-12-10T08:26:07;-0.90;99.90
9509;DHT22;4792;50.088;8.122;2022-12-10T08:28:37;-0.90;99.90
9509;DHT22;4792;50.088;8.122;2022-12-10T08:31:07;-0.90;99.90
9509;DHT22;4792;50.088;8.122;2022-12-10T08:33:36;-0.90;99.90
9509;DHT22;4792;50.088;8.122;2022-12-10T08:36:06;-0.90;99.90
9509;DHT22;4792;50.088;8.122;2022-12-10T08:38:35;-0.80;99.90
9509;DHT22;4792;50.088;8.122;2022-12-10T08:41:07;-0.80;99.90
9509;DHT22;4792;50.088;8.122;2022-12-10T08:43:38;-0.80;99.90
9509;DHT22;4792;50.088;8.122;2022-12-10T08:46:06;-0.80;99.90
9509;DHT22;4792;50.088;8.122;2022-12-10T08:48:35;-0.70;99.90
9509;DHT22;4792;50.088;8.122;2022-12-10T08:51:05;-0.70;99.90
9509;DHT22;4792;50.088;8.122;2022-12-10T08:53:33;-0.70;99.90
9509;DHT22;4792;50.088;8.122;2022-12-10T08:56:02;-0.60;99.90
9509;DHT22;4792;50.088;8.122;2022-12-10T08:58:30;-0.50;99.90
9509;DHT22;4792;50.088;8.122;2022-12-10T09:01:05;-0.40;99.90
9509;DHT22;4792;50.088;8.122;2022-12-10T09:03:34;-0.40;99.90
9509;DHT22;4792;50.088;8.122;2022-12-10T09:06:04;-0.30;99.90
9509;DHT22;4792;50.088;8.122;2022-12-10T09:08:32;-0.30;99.90
9509;DHT22;4792;50.088;8.122;2022-12-10T09:11:05;-0.30;99.90
9509;DHT22;4792;50.088;8.122;2022-12-10T09:13:33;-0.30;99.90
9509;DHT22;4792;50.088;8.122;2022-12-10T09:16:03;-0.30;99.90
9509;DHT22;4792;50.088;8.122;2022-12-10T09:18:32;-0.30;99.90
9509;DHT22;4792;50.088;8.122;2022-12-10T09:21:03;-0.30;99.90
9509;DHT22;4792;50.088;8.122;2022-12-10T09:23:32;-0.30;99.90
9509;DHT22;4792;50.088;8.122;2022-12-10T09:26:00;-0.30;99.90
9509;DHT22;4792;50.088;8.122;2022-12-10T09:28:28;-0.30;99.90
9509;DHT22;4792;50.088;8.122;2022-12-10T09:30:56;-0.30;99.90
9509;DHT22;4792;50.088;8.122;2022-12-10T09:33:27;-0.30;99.90
9509;DHT22;4792;50.088;8.122;2022-12-10T09:35:55;-0.40;99.90
9509;DHT22;4792;50.088;8.122;2022-12-10T09:38:23;-0.40;99.90
9509;DHT22;4792;50.088;8.122;2022-12-10T09:40:58;-0.40;99.90
9509;DHT22;4792;50.088;8.122;2022-12-10T09:43:44;-0.30;99.90
9509;DHT22;4792;50.088;8.122;2022-12-10T09:46:21;-0.10;99.90
9509;DHT22;4792;50.088;8.122;2022-12-10T09:49:01;0.10;99.90
9509;DHT22;4792;50.088;8.122;2022-12-10T09:51:33;0.50;99.90
9509;DHT22;4792;50.088;8.122;2022-12-10T09:54:04;1.40;99.90
9509;DHT22;4792;50.088;8.122;2022-12-10T09:56:39;2.20;99.90
9509;DHT22;4792;50.088;8.122;2022-12-10T09:59:15;2.80;99.90
9509;DHT22;4792;50.088;8.122;2022-12-10T10:01:45;3.30;99.90
9509;DHT22;4792;50.088;8.122;2022-12-10T10:04:16;3.80;99.90
9509;DHT22;4792;50.088;8.122;2022-12-10T10:06:45;3.90;99.90
9509;DHT22;4792;50.088;8.122;2022-12-10T10:09:14;4.10;99.90
9509;DHT22;4792;50.088;8.122;2022-12-10T10:11:43;4.50;99.90
9509;DHT22;4792;50.088;8.122;2022-12-10T10:14:13;4.60;99.90
9509;DHT22;4792;50.088;8.122;2022-12-10T10:16:44;4.50;99.90
9509;DHT22;4792;50.088;8.122;2022-12-10T10:19:21;4.50;99.90
9509;DHT22;4792;50.088;8.122;2022-12-10T10:21:51;4.70;99.90
9509;DHT22;4792;50.088;8.122;2022-12-10T10:24:22;5.30;99.90
9509;DHT22;4792;50.088;8.122;2022-12-10T10:26:52;5.50;99.90
9509;DHT22;4792;50.088;8.122;2022-12-10T10:29:21;5.70;99.90
9509;DHT22;4792;50.088;8.122;2022-12-10T10:32:12;5.80;99.90
9509;DHT22;4792;50.088;8.122;2022-12-10T10:34:42;5.20;99.90
9509;DHT22;4792;50.088;8.122;2022-12-10T10:37:16;5.30;99.90
9509;DHT22;4792;50.088;8.122;2022-12-10T10:39:47;5.50;99.90
9509;DHT22;4792;50.088;8.122;2022-12-10T10:42:27;5.60;99.90
9509;DHT22;4792;50.088;8.122;2022-12-10T10:44:59;5.20;99.90
9509;DHT22;4792;50.088;8.122;2022-12-10T10:47:29;5.00;99.90
9509;DHT22;4792;50.088;8.122;2022-12-10T10:50:04;4.80;99.90
9509;DHT22;4792;50.088;8.122;2022-12-10T10:52:37;4.40;99.90
9509;DHT22;4792;50.088;8.122;2022-12-10T10:55:08;3.80;99.90
9509;DHT22;4792;50.088;8.122;2022-12-10T10:57:56;3.50;99.90
9509;DHT22;4792;50.088;8.122;2022-12-10T11:00:24;3.30;99.90
9509;DHT22;4792;50.088;8.122;2022-12-10T11:02:53;3.40;99.90
9509;DHT22;4792;50.088;8.122;2022-12-10T11:05:24;3.30;99.90
9509;DHT22;4792;50.088;8.122;2022-12-10T11:08:02;3.40;99.90
9509;DHT22;4792;50.088;8.122;2022-12-10T11:10:31;3.00;99.90
9509;DHT22;4792;50.088;8.122;2022-12-10T11:13:04;2.50;99.90
9509;DHT22;4792;50.088;8.122;2022-12-10T11:15:35;2.20;99.90
9509;DHT22;4792;50.088;8.122;2022-12-10T11:18:18;1.80;99.90
9509;DHT22;4792;50.088;8.122;2022-12-10T11:20:59;1.70;99.90
9509;DHT22;4792;50.088;8.122;2022-12-10T11:23:28;1.50;99.90
9509;DHT22;4792;50.088;8.122;2022-12-10T11:26:06;1.70;99.90
9509;DHT22;4792;50.088;8.122;2022-12-10T11:28:46;2.40;99.90
9509;DHT22;4792;50.088;8.122;2022-12-10T11:31:39;2.90;99.90
9509;DHT22;4792;50.088;8.122;2022-12-10T11:34:18;3.70;99.90
9509;DHT22;4792;50.088;8.122;2022-12-10T11:36:57;4.50;99.90
9509;DHT22;4792;50.088;8.122;2022-12-10T11:39:51;4.70;99.90
9509;DHT22;4792;50.088;8.122;2022-12-10T11:42:33;5.10;99.90
9509;DHT22;4792;50.088;8.122;2022-12-10T11:45:13;5.90;99.90
9509;DHT22;4792;50.088;8.122;2022-12-10T11:47:56;6.30;99.90
9509;DHT22;4792;50.088;8.122;2022-12-10T11:50:37;6.10;99.90
9509;DHT22;4792;50.088;8.122;2022-12-10T11:53:24;6.40;99.90
9509;DHT22;4792;50.088;8.122;2022-12-10T11:56:05;6.50;99.90
9509;DHT22;4792;50.088;8.122;2022-12-10T11:58:48;6.80;99.90
9509;DHT22;4792;50.088;8.122;2022-12-10T12:01:26;7.00;99.90
9509;DHT22;4792;50.088;8.122;2022-12-10T12:04:04;7.30;99.90
9509;DHT22;4792;50.088;8.122;2022-12-10T12:06:52;7.60;99.90
9509;DHT22;4792;50.088;8.122;2022-12-10T12:09:29;7.90;99.90
9509;DHT22;4792;50.088;8.122;2022-12-10T12:12:10;8.50;99.90
9509;DHT22;4792;50.088;8.122;2022-12-10T12:14:46;9.10;99.90
9509;DHT22;4792;50.088;8.122;2022-12-10T12:17:19;9.70;99.90
9509;DHT22;4792;50.088;8.122;2022-12-10T12:19:51;8.80;99.90
9509;DHT22;4792;50.088;8.122;2022-12-10T12:22:24;8.90;99.90
9509;DHT22;4792;50.088;8.122;2022-12-10T12:24:59;8.70;99.90
9509;DHT22;4792;50.088;8.122;2022-12-10T12:27:31;8.60;99.90
9509;DHT22;4792;50.088;8.122;2022-12-10T12:30:05;8.60;99.90
9509;DHT22;4792;50.088;8.122;2022-12-10T12:32:44;7.60;99.90
9509;DHT22;4792;50.088;8.122;2022-12-10T12:35:17;6.10;99.90
9509;DHT22;4792;50.088;8.122;2022-12-10T12:37:51;5.40;99.90
9509;DHT22;4792;50.088;8.122;2022-12-10T12:40:27;4.80;99.90
9509;DHT22;4792;50.088;8.122;2022-12-10T12:42:58;4.20;99.90
9509;DHT22;4792;50.088;8.122;2022-12-10T12:45:34;3.60;99.90
9509;DHT22;4792;50.088;8.122;2022-12-10T12:48:14;2.90;99.90
9509;DHT22;4792;50.088;8.122;2022-12-10T12:50:47;2.60;99.90
9509;DHT22;4792;50.088;8.122;2022-12-10T12:53:17;2.50;99.90
9509;DHT22;4792;50.088;8.122;2022-12-10T12:55:55;2.30;99.90
9509;DHT22;4792;50.088;8.122;2022-12-10T12:58:31;2.30;99.90
9509;DHT22;4792;50.088;8.122;2022-12-10T13:01:10;2.40;99.90
9509;DHT22;4792;50.088;8.122;2022-12-10T13:03:41;2.40;99.90
9509;DHT22;4792;50.088;8.122;2022-12-10T13:06:16;2.30;99.90
9509;DHT22;4792;50.088;8.122;2022-12-10T13:08:47;2.30;99.90
9509;DHT22;4792;50.088;8.122;2022-12-10T13:11:27;2.30;99.90
9509;DHT22;4792;50.088;8.122;2022-12-10T13:14:30;2.30;99.90
9509;DHT22;4792;50.088;8.122;2022-12-10T13:17:24;2.00;99.90
9509;DHT22;4792;50.088;8.122;2022-12-10T13:20:04;2.10;99.90
9509;DHT22;4792;50.088;8.122;2022-12-10T13:22:56;2.20;99.90
9509;DHT22;4792;50.088;8.122;2022-12-10T13:25:42;1.90;99.90
9509;DHT22;4792;50.088;8.122;2022-12-10T13:28:29;1.80;99.90
9509;DHT22;4792;50.088;8.122;2022-12-10T13:31:18;1.70;99.90
9509;DHT22;4792;50.088;8.122;2022-12-10T13:33:52;1.70;99.90
9509;DHT22;4792;50.088;8.122;2022-12-10T13:36:36;1.80;99.90
9509;DHT22;4792;50.088;8.122;2022-12-10T13:39:22;1.70;99.90
9509;DHT22;4792;50.088;8.122;2022-12-10T13:42:29;1.70;99.90
9509;DHT22;4792;50.088;8.122;2022-12-10T13:45:31;1.50;99.90
9509;DHT22;4792;50.088;8.122;2022-12-10T13:48:30;1.50;99.90
9509;DHT22;4792;50.088;8.122;2022-12-10T13:51:20;1.60;99.90
9509;DHT22;4792;50.088;8.122;2022-12-10T13:54:01;1.60;99.90
9509;DHT22;4792;50.088;8.122;2022-12-10T13:56:38;1.80;99.90
9509;DHT22;4792;50.088;8.122;2022-12-10T13:59:27;1.70;99.90
9509;DHT22;4792;50.088;8.122;2022-12-10T14:02:11;1.60;99.90
9509;DHT22;4792;50.088;8.122;2022-12-10T14:05:06;1.60;99.90
9509;DHT22;4792;50.088;8.122;2022-12-10T14:07:39;1.60;99.90
9509;DHT22;4792;50.088;8.122;2022-12-10T14:10:13;1.60;99.90
9509;DHT22;4792;50.088;8.122;2022-12-10T14:12:44;1.70;99.90
9509;DHT22;4792;50.088;8.122;2022-12-10T14:15:17;1.40;99.90
9509;DHT22;4792;50.088;8.122;2022-12-10T14:17:52;1.50;99.90
9509;DHT22;4792;50.088;8.122;2022-12-10T14:20:23;1.10;99.90
9509;DHT22;4792;50.088;8.122;2022-12-10T14:22:53;0.80;99.90
9509;DHT22;4792;50.088;8.122;2022-12-10T14:25:42;0.80;99.90
9509;DHT22;4792;50.088;8.122;2022-12-10T14:28:12;0.80;99.90
9509;DHT22;4792;50.088;8.122;2022-12-10T14:30:42;0.40;99.90
9509;DHT22;4792;50.088;8.122;2022-12-10T14:33:15;0.50;99.90
9509;DHT22;4792;50.088;8.122;2022-12-10T14:35:47;0.40;99.90
9509;DHT22;4792;50.088;8.122;2022-12-10T14:38:19;0.50;99.90
9509;DHT22;4792;50.088;8.122;2022-12-10T14:40:48;0.50;99.90
9509;DHT22;4792;50.088;8.122;2022-12-10T14:43:20;0.50;99.90
9509;DHT22;4792;50.088;8.122;2022-12-10T14:45:51;0.40;99.90
9509;DHT22;4792;50.088;8.122;2022-12-10T14:48:22;0.30;99.90
9509;DHT22;4792;50.088;8.122;2022-12-10T14:50:50;0.30;99.90
9509;DHT22;4792;50.088;8.122;2022-12-10T14:53:22;0.20;99.90
9509;DHT22;4792;50.088;8.122;2022-12-10T14:55:57;0.10;99.90
9509;DHT22;4792;50.088;8.122;2022-12-10T14:58:31;0.10;99.90
9509;DHT22;4792;50.088;8.122;2022-12-10T15:01:13;0.10;99.90
9509;DHT22;4792;50.088;8.122;2022-12-10T15:03:47;0.30;99.90
9509;DHT22;4792;50.088;8.122;2022-12-10T15:06:16;0.40;99.90
9509;DHT22;4792;50.088;8.122;2022-12-10T15:08:47;0.50;99.90
9509;DHT22;4792;50.088;8.122;2022-12-10T15:11:17;0.90;99.90
9509;DHT22;4792;50.088;8.122;2022-12-10T15:13:48;1.10;99.90
9509;DHT22;4792;50.088;8.122;2022-12-10T15:16:19;1.20;99.90
9509;DHT22;4792;50.088;8.122;2022-12-10T15:18:50;1.00;99.90
9509;DHT22;4792;50.088;8.122;2022-12-10T15:21:21;0.90;99.90
9509;DHT22;4792;50.088;8.122;2022-12-10T15:23:52;0.80;99.90
9509;DHT22;4792;50.088;8.122;2022-12-10T15:26:34;0.60;99.90
9509;DHT22;4792;50.088;8.122;2022-12-10T15:29:31;0.50;99.90
9509;DHT22;4792;50.088;8.122;2022-12-10T15:32:05;0.30;99.90
9509;DHT22;4792;50.088;8.122;2022-12-10T15:34:41;0.00;99.90
9509;DHT22;4792;50.088;8.122;2022-12-10T15:37:21;-0.30;99.90
9509;DHT22;4792;50.088;8.122;2022-12-10T15:39:53;-0.60;99.90
9509;DHT22;4792;50.088;8.122;2022-12-10T15:42:35;-0.80;99.90
9509;DHT22;4792;50.088;8.122;2022-12-10T15:45:15;-0.90;99.90
9509;DHT22;4792;50.088;8.122;2022-12-10T15:47:44;-1.00;99.90
9509;DHT22;4792;50.088;8.122;2022-12-10T15:50:13;-1.10;99.90
9509;DHT22;4792;50.088;8.122;2022-12-10T15:52:42;-1.10;99.90
9509;DHT22;4792;50.088;8.122;2022-12-10T15:55:12;-1.20;99.90
9509;DHT22;4792;50.088;8.122;2022-12-10T15:57:41;-1.20;99.90
9509;DHT22;4792;50.088;8.122;2022-12-10T16:00:17;-1.10;99.90
9509;DHT22;4792;50.088;8.122;2022-12-10T16:02:49;-1.00;99.90
9509;DHT22;4792;50.088;8.122;2022-12-10T16:05:22;-1.10;99.90
9509;DHT22;4792;50.088;8.122;2022-12-10T16:07:52;-1.10;99.90
9509;DHT22;4792;50.088;8.122;2022-12-10T16:10:22;-1.20;99.90
9509;DHT22;4792;50.088;8.122;2022-12-10T16:12:57;-1.10;99.90
9509;DHT22;4792;50.088;8.122;2022-12-10T16:15:28;-1.10;99.90
9509;DHT22;4792;50.088;8.122;2022-12-10T16:17:57;-1.10;99.90
9509;DHT22;4792;50.088;8.122;2022-12-10T16:20:29;-1.10;99.90
9509;DHT22;4792;50.088;8.122;2022-12-10T16:22:58;-1.10;99.90
9509;DHT22;4792;50.088;8.122;2022-12-10T16:25:28;-1.00;99.90
9509;DHT22;4792;50.088;8.122;2022-12-10T16:27:57;-1.10;99.90
9509;DHT22;4792;50.088;8.122;2022-12-10T16:30:29;-1.20;99.90
9509;DHT22;4792;50.088;8.122;2022-12-10T16:33:04;-1.20;99.90
9509;DHT22;4792;50.088;8.122;2022-12-10T16:35:34;-1.30;99.90
9509;DHT22;4792;50.088;8.122;2022-12-10T16:38:02;-1.20;99.90
9509;DHT22;4792;50.088;8.122;2022-12-10T16:40:37;-1.20;99.90
9509;DHT22;4792;50.088;8.122;2022-12-10T16:43:06;-1.20;99.90